Pagina principale
METAR-TAF:

METAR-TAF

Aeroporti :

Valence, Francia

latitudine: 44-54-58N, longitudine: 4-58-06E, altezza: 160 m

Osservazione

Il bollettino è stato emesso 23 minuti fa, alle 07:30 UTC
Vento 10 kt da nord
Temperature 16°C
Umidità 88%
Pressione 1020 hPa
Visibilità 10 km o più
Poco nuvoloso ad un'altezza di 3600 ft
Nuvoloso ad un'altezza di 4400 ft
Nuvoloso ad un'altezza di 5600 ft
pioggia debole

METAR: LFLU 200730Z AUTO 36010KT 9999 -RA FEW036 BKN044 BKN056 16/14 Q1020

Ora: 09:53 (07:53 UTC)


TAF: mancante

Osservazioni e previsioni meteorologiche di più di 4000 aeroporti (messaggi METAR e TAF).

Le stazioni disponibili sono rappresentate dai dischi gialli e rossi sulla carta.

Puntare il mouse per vedere il nome della stazione.

Clicca sopra per visualizzare le osservazioni e previsioni meteorologiche.

Per cambiare la mappa : fare clic sui pulsanti verdi con una croce nera per ingrandire, il pulsante verde con un trattino per diminuire, o sulla freccia verde per le mappe adiacenti.


METAR-TAF: